Time;durP1;ratioP1;P1;durP2;ratioP2;P2;SDS_P1;SDS_P2;PMS_P1;PMS_P2;Temp;Humidity;BMP_temperature;BMP_pressure;BME280_temperature;BME280_humidity;BME280_pressure;Samples;Min_cycle;Max_cycle;Signal;HPM_P1;HPM_P2
2022/06/04 00:00:52;;;;;;;18.90;13.80;;;;;;;9.78;75.40;101781.63;1711041;83;21133;-88
2022/06/04 00:03:18;;;;;;;21.35;14.47;;;;;;;9.78;75.46;101779.39;1710936;83;21764;-88
2022/06/04 00:05:51;;;;;;;19.80;13.93;;;;;;;9.77;75.48;101778.50;1697736;83;21070;-88
2022/06/04 00:08:26;;;;;;;20.43;14.58;;;;;;;9.75;75.59;101770.97;1702708;83;21079;-88
2022/06/04 00:16:31;;;;;;;21.77;16.07;;;;;;;9.72;75.73;101766.87;1700331;83;21971;-87
2022/06/04 00:18:57;;;;;;;22.30;15.05;;;;;;;9.72;75.77;101768.18;1682356;83;21119;-88
2022/06/04 00:21:24;;;;;;;26.23;15.70;;;;;;;9.70;75.84;101767.22;1695318;83;21488;-88
2022/06/04 00:23:51;;;;;;;22.60;16.05;;;;;;;9.71;75.91;101774.29;1689593;83;21083;-88
2022/06/04 00:26:18;;;;;;;23.67;15.50;;;;;;;9.69;75.95;101767.64;1677419;83;21065;-88
2022/06/04 00:28:48;;;;;;;22.58;14.80;;;;;;;9.67;76.00;101770.62;1694439;83;21948;-87
2022/06/04 00:31:16;;;;;;;21.90;15.58;;;;;;;9.68;76.01;101775.45;1679353;84;21142;-87
2022/06/04 00:33:43;;;;;;;23.57;15.48;;;;;;;9.60;75.98;101763.70;1665427;84;21105;-87
2022/06/04 00:36:10;;;;;;;22.80;14.85;;;;;;;9.64;76.02;101776.16;1692774;84;21169;-87
2022/06/04 00:38:37;;;;;;;24.80;15.68;;;;;;;9.64;76.06;101769.58;1684226;84;21094;-87
2022/06/04 00:41:39;;;;;;;19.48;15.08;;;;;;;9.64;76.05;101773.52;1646818;85;21769;-87
2022/06/04 00:44:19;;;;;;;24.12;15.03;;;;;;;9.63;76.01;101771.71;1719268;83;21508;-87
2022/06/04 00:47:09;;;;;;;24.67;15.72;;;;;;;9.58;76.03;101774.57;1716393;82;21035;-87
2022/06/04 00:49:38;;;;;;;21.68;15.63;;;;;;;9.54;76.11;101780.09;1666732;84;21518;-87
2022/06/04 00:52:09;;;;;;;22.17;15.03;;;;;;;9.50;76.20;101780.38;1687348;83;21111;-86
2022/06/04 00:54:36;;;;;;;21.33;15.10;;;;;;;9.49;76.28;101774.62;1675840;85;22976;-86
2022/06/04 00:57:37;;;;;;;19.25;14.65;;;;;;;9.48;76.31;101772.83;1686787;83;21112;-87
2022/06/04 01:00:11;;;;;;;20.68;15.23;;;;;;;9.47;76.32;101772.76;1674407;84;21631;-87
2022/06/04 01:03:00;;;;;;;25.88;16.73;;;;;;;9.43;76.39;101774.34;1699978;83;21299;-88
2022/06/04 01:05:52;;;;;;;19.15;15.60;;;;;;;9.40;76.44;101773.30;1716427;83;21156;-89
2022/06/04 01:09:02;;;;;;;20.50;15.45;;;;;;;9.41;76.52;101765.91;1715736;83;21790;-87
2022/06/04 01:12:10;;;;;;;23.67;15.48;;;;;;;9.37;76.46;101764.88;1691494;83;21085;-88
2022/06/04 01:15:07;;;;;;;21.65;15.45;;;;;;;9.35;76.49;101757.34;1706190;83;21564;-87
2022/06/04 01:17:54;;;;;;;19.65;14.45;;;;;;;9.31;76.45;101761.55;1712164;82;21596;-87
2022/06/04 01:20:47;;;;;;;20.70;14.50;;;;;;;9.30;76.57;101762.36;1716409;82;21054;-87
2022/06/04 01:23:58;;;;;;;18.45;14.58;;;;;;;9.30;76.56;101761.47;1710974;83;21834;-88
2022/06/04 01:26:42;;;;;;;18.55;13.45;;;;;;;9.28;76.51;101760.50;1694043;83;21097;-88
2022/06/04 01:29:17;;;;;;;;;;;;;;;9.26;76.54;101764.80;1666280;84;21086;-88
2022/06/04 01:31:51;;;;;;;18.73;13.05;;;;;;;9.25;76.61;101762.98;1706284;83;21170;-88
2022/06/04 01:34:22;;;;;;;21.50;13.75;;;;;;;9.24;76.56;101757.26;1690066;84;21121;-88
2022/06/04 01:37:02;;;;;;;18.50;14.05;;;;;;;9.23;76.60;101759.37;1700352;84;21767;-87
2022/06/04 01:41:03;;;;;;;19.57;13.28;;;;;;;9.22;76.63;101756.29;1699724;83;21074;-88
2022/06/04 01:41:59;;;;;;;19.60;14.50;;;;;;;9.21;76.64;101753.16;1678813;84;21481;-88
2022/06/04 01:44:33;;;;;;;19.55;14.15;;;;;;;9.08;76.65;101735.50;1678607;83;22195;-88
2022/06/04 01:47:04;;;;;;;19.73;14.23;;;;;;;9.15;76.70;101746.78;1680230;83;21463;-88
2022/06/04 01:49:44;;;;;;;18.42;13.58;;;;;;;9.15;76.76;101746.78;1677383;84;21812;-88
2022/06/04 01:52:18;;;;;;;23.60;14.70;;;;;;;9.17;76.80;101738.98;1684429;84;21106;-88
2022/06/04 01:54:50;;;;;;;23.73;14.58;;;;;;;9.17;76.73;101748.59;1688256;83;21086;-88
2022/06/04 01:57:39;;;;;;;20.17;14.03;;;;;;;9.17;76.75;101749.48;1680975;84;21298;-88
2022/06/04 02:00:15;;;;;;;23.22;13.58;;;;;;;9.18;76.75;101754.31;1705359;84;21075;-87
2022/06/04 02:02:59;;;;;;;20.90;14.23;;;;;;;9.10;76.71;101741.75;1700375;83;21790;-87
2022/06/04 02:05:37;;;;;;;20.40;13.70;;;;;;;9.18;76.73;101751.69;1648456;84;21091;-87
2022/06/04 02:08:18;;;;;;;20.35;14.05;;;;;;;9.18;76.79;101744.73;1659344;84;21090;-86
2022/06/04 02:10:57;;;;;;;19.73;14.03;;;;;;;9.20;76.81;101748.33;1672030;84;21055;-86
2022/06/04 02:13:24;;;;;;;23.20;15.08;;;;;;;9.21;76.83;101740.03;1714210;82;21072;-86
2022/06/04 02:15:59;;;;;;;19.73;13.78;;;;;;;9.23;76.89;101745.83;1715304;83;21721;-86
2022/06/04 02:18:26;;;;;;;23.52;14.05;;;;;;;9.26;76.89;101741.14;1700214;82;21355;-89
2022/06/04 02:20:53;;;;;;;23.38;14.73;;;;;;;9.22;76.92;101726.08;1712551;83;21015;-89
2022/06/04 02:23:20;;;;;;;19.40;13.95;;;;;;;9.31;76.99;101739.22;1726511;83;21631;-89
2022/06/04 02:25:47;;;;;;;17.07;13.53;;;;;;;9.35;77.03;101736.31;1726519;83;21268;-89
2022/06/04 02:28:13;;;;;;;16.25;13.13;;;;;;;9.44;77.11;101735.81;1724784;82;21745;-89
2022/06/04 02:31:02;;;;;;;25.12;13.93;;;;;;;9.52;77.14;101728.77;1694452;83;21088;-89
2022/06/04 02:33:47;;;;;;;17.50;13.78;;;;;;;9.63;77.06;101728.34;1726525;82;21058;-87
2022/06/04 02:36:58;;;;;;;21.80;13.88;;;;;;;9.64;76.95;101703.86;1726201;82;21153;-86
2022/06/04 02:39:42;;;;;;;22.52;13.60;;;;;;;9.83;76.85;101715.66;1726546;82;21038;-86
2022/06/04 02:42:35;;;;;;;22.07;13.65;;;;;;;9.98;76.58;101698.75;1710168;83;21765;-87
2022/06/04 02:45:18;;;;;;;21.57;13.43;;;;;;;9.98;76.58;101698.75;1726188;81;21030;-87
2022/06/04 02:47:50;;;;;;;18.07;12.58;;;;;;;10.21;76.60;101714.17;1722123;81;21197;-88
2022/06/04 02:50:40;;;;;;;21.42;13.60;;;;;;;10.34;76.51;101714.31;1715077;81;21402;-88
2022/06/04 02:53:07;;;;;;;19.60;13.50;;;;;;;10.43;76.32;101711.63;1669783;84;21113;-88
2022/06/04 02:55:38;;;;;;;19.07;13.85;;;;;;;10.54;76.21;101709.88;1719093;82;21761;-88
2022/06/04 02:58:11;;;;;;;19.17;13.93;;;;;;;10.63;76.08;101707.19;1717325;83;21027;-87
2022/06/04 03:00:38;;;;;;;23.62;13.72;;;;;;;10.74;75.92;101703.67;1691712;84;21097;-88
2022/06/04 03:03:05;;;;;;;21.27;14.35;;;;;;;10.84;75.67;101702.29;1679164;84;21598;-88
2022/06/04 03:05:31;;;;;;;24.12;13.95;;;;;;;10.92;75.45;101707.86;1688702;83;21055;-88
2022/06/04 03:08:02;;;;;;;23.65;14.90;;;;;;;10.97;75.19;101713.78;1702133;83;21939;-88
2022/06/04 03:10:32;;;;;;;20.15;13.95;;;;;;;10.99;74.92;101709.47;1718429;82;21058;-86
2022/06/04 03:12:59;;;;;;;21.87;14.93;;;;;;;11.04;74.81;101713.19;1689491;84;21633;-88
2022/06/04 03:15:26;;;;;;;16.77;13.48;;;;;;;11.10;74.77;101705.94;1712658;83;21182;-86
2022/06/04 03:17:52;;;;;;;23.80;14.33;;;;;;;11.20;74.81;101705.86;1716379;83;21110;-88
2022/06/04 03:20:23;;;;;;;20.45;14.47;;;;;;;11.32;74.69;101705.02;1718400;83;22851;-88
2022/06/04 03:22:51;;;;;;;20.70;14.13;;;;;;;11.45;74.60;101704.63;1718901;83;21449;-88
2022/06/04 03:25:18;;;;;;;21.05;13.70;;;;;;;11.61;74.57;101710.45;1704814;83;21502;-87
2022/06/04 03:27:45;;;;;;;21.93;13.83;;;;;;;12.17;75.85;101708.03;1697975;83;21053;-88
2022/06/04 03:30:12;;;;;;;21.75;12.65;;;;;;;13.41;76.44;101704.00;1708361;83;21096;-87
2022/06/04 03:32:39;;;;;;;22.70;13.65;;;;;;;14.69;75.54;101699.39;1678846;84;21759;-87
2022/06/04 03:35:07;;;;;;;15.25;12.43;;;;;;;15.74;73.57;101701.20;1693378;84;21494;-88
2022/06/04 03:37:35;;;;;;;19.60;12.25;;;;;;;16.45;72.03;101691.80;1693914;84;21554;-89
2022/06/04 03:40:04;;;;;;;16.48;11.38;;;;;;;16.97;70.40;101697.05;1719820;81;21062;-88
2022/06/04 03:42:31;;;;;;;18.67;12.93;;;;;;;17.00;68.69;101701.06;1697917;83;21063;-88
2022/06/04 03:44:58;;;;;;;16.40;11.30;;;;;;;17.31;68.92;101701.48;1705745;83;21706;-88
2022/06/04 03:47:25;;;;;;;15.63;11.75;;;;;;;18.24;68.24;101706.02;1719149;81;21006;-90
2022/06/04 03:49:53;;;;;;;16.97;10.78;;;;;;;18.99;67.34;101696.36;1733674;81;21073;-90
2022/06/04 03:52:21;;;;;;;14.18;10.03;;;;;;;19.80;65.82;101691.78;1683714;83;21138;-88
2022/06/04 03:54:54;;;;;;;14.87;9.60;;;;;;;20.51;64.40;101688.69;1676789;84;21091;-88
2022/06/04 03:57:38;;;;;;;15.37;9.00;;;;;;;21.15;63.05;101695.73;1673186;84;22643;-87
2022/06/04 04:00:30;;;;;;;12.20;9.23;;;;;;;21.89;61.63;101698.50;1692523;83;21366;-88
2022/06/04 04:03:01;;;;;;;16.17;9.08;;;;;;;22.73;61.20;101700.95;1717847;83;21065;-88
2022/06/04 04:05:39;;;;;;;13.05;8.48;;;;;;;23.89;59.95;101695.03;1724595;82;21388;-87
2022/06/04 04:08:08;;;;;;;13.90;8.53;;;;;;;24.79;58.18;101691.73;1726318;82;21058;-87
2022/06/04 04:10:36;;;;;;;12.53;8.60;;;;;;;25.43;56.02;101694.06;1726806;82;21804;-88
2022/06/04 04:13:03;;;;;;;15.63;8.70;;;;;;;25.77;54.84;101696.44;1712663;81;21609;-88
2022/06/04 04:15:30;;;;;;;10.32;8.05;;;;;;;26.16;53.96;101691.00;1686367;82;21620;-88
2022/06/04 04:17:57;;;;;;;12.43;7.95;;;;;;;26.79;53.15;101686.28;1717940;81;21118;-88
2022/06/04 04:20:27;;;;;;;10.70;7.70;;;;;;;27.58;52.23;101687.11;1691743;81;21343;-88
2022/06/04 04:22:54;;;;;;;10.63;7.90;;;;;;;28.05;50.40;101687.43;1713402;81;21773;-89
2022/06/04 04:25:24;;;;;;;11.48;7.47;;;;;;;28.30;49.43;101686.16;1710673;81;21122;-89
2022/06/04 04:27:51;;;;;;;13.45;8.15;;;;;;;28.76;48.42;101681.44;1711869;83;22124;-90
2022/06/04 04:30:21;;;;;;;10.03;7.47;;;;;;;29.13;46.90;101684.11;1699958;83;21179;-91
2022/06/04 04:32:48;;;;;;;10.85;7.92;;;;;;;29.52;46.50;101683.06;1715557;83;21719;-94
2022/06/04 04:35:18;;;;;;;10.38;7.20;;;;;;;30.12;45.26;101686.56;1714979;83;24072;-90
2022/06/04 04:37:56;;;;;;;8.35;6.75;;;;;;;30.36;44.44;101677.39;1686076;85;21513;-93
2022/06/04 04:44:24;;;;;;;5.35;3.77;;;;;;;31.01;42.73;101684.08;1711666;83;21076;-92
2022/06/04 04:47:19;;;;;;;6.15;4.12;;;;;;;30.48;40.73;101686.83;1715531;83;21106;-94
2022/06/04 04:49:46;;;;;;;8.10;3.67;;;;;;;30.13;40.34;101687.86;1715225;83;22408;-90
2022/06/04 04:52:13;;;;;;;8.88;3.87;;;;;;;29.54;39.58;101678.45;1714439;83;21168;-94
2022/06/04 04:54:40;;;;;;;6.40;3.67;;;;;;;28.77;39.43;101679.99;1714877;83;21070;-89
2022/06/04 04:57:07;;;;;;;6.42;3.72;;;;;;;28.52;40.05;101675.94;1715606;83;21754;-92
2022/06/04 04:59:35;;;;;;;4.67;3.05;;;;;;;28.99;40.11;101680.09;1714109;83;21082;-88
2022/06/04 05:02:02;;;;;;;7.78;3.58;;;;;;;29.59;39.28;101672.86;1716179;83;21774;-90
2022/06/04 05:04:32;;;;;;;5.47;3.22;;;;;;;30.23;39.55;101682.91;1724595;82;21074;-90
2022/06/04 05:06:59;;;;;;;5.12;3.00;;;;;;;30.86;38.63;101683.36;1708734;83;21093;-88
2022/06/04 05:09:30;;;;;;;6.22;3.12;;;;;;;31.22;37.73;101692.19;1698062;83;21059;-96
2022/06/04 05:11:57;;;;;;;4.75;3.02;;;;;;;31.22;36.98;101698.50;1717380;83;21086;-94
2022/06/04 05:14:31;;;;;;;5.83;3.10;;;;;;;30.64;35.39;101694.33;1715865;83;21888;-89
2022/06/04 05:16:58;;;;;;;4.90;2.87;;;;;;;30.10;35.91;101694.77;1703801;83;21099;-89
2022/06/04 05:19:43;;;;;;;6.12;2.90;;;;;;;30.01;35.63;101700.58;1673618;85;21081;-93
2022/06/04 05:22:10;;;;;;;4.35;3.05;;;;;;;30.11;35.94;101699.71;1639139;86;21208;-91
2022/06/04 05:24:37;;;;;;;6.03;3.27;;;;;;;30.46;35.76;101696.01;1696908;84;21035;-89
2022/06/04 05:27:05;;;;;;;5.90;2.75;;;;;;;31.01;35.57;101701.74;1716620;83;21800;-89
2022/06/04 05:29:39;;;;;;;5.03;2.80;;;;;;;31.57;35.16;101702.76;1716709;83;21046;-94
2022/06/04 05:32:07;;;;;;;7.87;2.70;;;;;;;31.93;34.61;101696.49;1716879;83;21038;-91
2022/06/04 05:34:35;;;;;;;7.20;3.25;;;;;;;32.05;34.02;101698.61;1716730;83;21078;-90
2022/06/04 05:37:02;;;;;;;6.95;3.35;;;;;;;31.99;33.46;101704.34;1717391;83;21623;-90
2022/06/04 05:39:35;;;;;;;7.45;3.00;;;;;;;30.85;31.78;101708.79;1716732;83;21743;-90
2022/06/04 05:42:07;;;;;;;8.18;3.10;;;;;;;28.37;31.93;101717.95;1719175;83;21066;-90
2022/06/04 05:44:34;;;;;;;6.67;3.33;;;;;;;26.32;33.77;101711.77;1709086;83;21107;-90
2022/06/04 05:47:04;;;;;;;7.75;3.15;;;;;;;25.14;34.97;101709.89;1719541;83;21058;-90
2022/06/04 05:49:31;;;;;;;9.80;3.37;;;;;;;24.23;36.07;101715.58;1715514;83;21051;-91
2022/06/04 05:51:58;;;;;;;4.85;2.83;;;;;;;23.25;36.77;101716.94;1687311;83;21767;-90
2022/06/04 05:54:49;;;;;;;6.03;3.37;;;;;;;22.44;37.54;101722.22;1689940;84;21506;-90
2022/06/04 05:57:16;;;;;;;6.33;3.40;;;;;;;21.35;38.35;101707.68;1722072;83;21318;-91
2022/06/04 05:59:43;;;;;;;9.28;3.52;;;;;;;20.69;39.77;101726.61;1722169;83;21118;-90
2022/06/04 06:02:11;;;;;;;4.70;3.35;;;;;;;20.41;40.56;101724.38;1722122;83;21066;-90
2022/06/04 06:04:46;;;;;;;9.20;3.98;;;;;;;20.07;41.23;101732.38;1722205;83;21772;-89
2022/06/04 06:07:41;;;;;;;5.72;3.87;;;;;;;19.61;41.64;101717.11;1722620;83;21584;-89
2022/06/04 06:10:27;;;;;;;8.90;3.95;;;;;;;19.23;42.28;101735.18;1722657;83;21082;-91
2022/06/04 06:13:04;;;;;;;7.30;4.47;;;;;;;18.89;43.01;101742.56;1726049;82;21210;-92
2022/06/04 06:15:41;;;;;;;8.63;4.15;;;;;;;18.56;43.82;101734.72;1730105;82;21046;-90
2022/06/04 06:18:08;;;;;;;7.72;3.55;;;;;;;18.43;44.30;101753.30;1729960;82;21763;-88
2022/06/04 06:20:43;;;;;;;9.13;4.08;;;;;;;18.16;44.75;101741.94;1701315;83;21304;-91
2022/06/04 06:23:26;;;;;;;7.80;3.92;;;;;;;17.94;45.33;101734.16;1696346;83;21126;-91
2022/06/04 06:25:55;;;;;;;12.35;4.67;;;;;;;17.81;46.09;101734.46;1686222;84;21106;-87
2022/06/04 06:28:22;;;;;;;11.22;4.97;;;;;;;17.71;46.34;101743.66;1655736;86;21071;-90
2022/06/04 06:34:52;;;;;;;11.68;4.62;;;;;;;17.42;47.50;101740.21;1719053;83;21042;-92
2022/06/04 06:41:20;;;;;;;9.40;5.10;;;;;;;17.25;48.20;101734.67;1718592;83;21110;-91
2022/06/04 06:43:57;;;;;;;11.88;4.70;;;;;;;17.13;48.55;101731.83;1719166;83;21050;-92
2022/06/04 06:50:25;;;;;;;9.90;4.15;;;;;;;17.06;49.00;101742.39;1690516;84;21631;-91
2022/06/04 06:52:52;;;;;;;16.67;8.08;;;;;;;17.02;49.19;101739.20;1690156;84;22209;-90
2022/06/04 06:59:20;;;;;;;9.93;5.65;;;;;;;17.21;49.43;101732.81;1689863;84;21148;-89
2022/06/04 07:06:05;;;;;;;6.22;4.22;;;;;;;17.28;49.01;101736.91;1707462;83;21062;-91
2022/06/04 07:08:41;;;;;;;6.72;3.70;;;;;;;17.15;49.32;101738.06;1708450;83;21030;-93
2022/06/04 07:11:10;;;;;;;6.15;3.98;;;;;;;17.24;49.31;101751.05;1704859;83;21205;-89
2022/06/04 07:13:37;;;;;;;5.30;2.70;;;;;;;17.22;48.91;101735.51;1703826;83;21920;-89
2022/06/04 07:16:31;;;;;;;5.65;3.10;;;;;;;17.24;49.12;101733.75;1684216;84;21802;-91
2022/06/04 07:18:58;;;;;;;4.90;2.80;;;;;;;17.31;49.24;101733.86;1692472;83;21059;-89
2022/06/04 07:21:24;;;;;;;8.38;4.97;;;;;;;17.37;49.06;101740.13;1673299;85;21037;-90
2022/06/04 07:23:51;;;;;;;7.45;3.87;;;;;;;17.37;49.27;101737.92;1704139;83;21232;-90
2022/06/04 07:26:57;;;;;;;7.10;3.47;;;;;;;17.44;49.15;101746.45;1701746;83;21063;-91
2022/06/04 07:29:24;;;;;;;5.72;4.22;;;;;;;17.39;49.03;101737.05;1683224;83;21754;-91
2022/06/04 07:32:10;;;;;;;7.78;3.62;;;;;;;17.35;49.14;101738.34;1683022;85;21075;-93
2022/06/04 07:42:47;;;;;;;4.37;3.47;;;;;;;17.12;49.98;101736.27;1632580;86;21132;-89
2022/06/04 07:45:38;;;;;;;10.72;4.30;;;;;;;17.04;50.35;101741.89;1722417;83;21776;-90
2022/06/04 07:48:06;;;;;;;11.05;4.37;;;;;;;16.98;50.50;101742.70;1687045;85;21165;-90
2022/06/04 07:50:34;;;;;;;9.65;4.10;;;;;;;16.97;50.84;101738.69;1721291;83;21521;-90
2022/06/04 07:56:46;;;;;;;8.90;4.30;;;;;;;17.07;51.01;101743.28;1720495;83;21074;-90
2022/06/04 08:03:35;;;;;;;10.82;6.85;;;;;;;17.16;51.27;101748.73;1709770;83;21096;-92
2022/06/04 08:06:03;;;;;;;11.03;4.45;;;;;;;17.17;51.38;101750.50;1693190;84;21027;-89
2022/06/04 08:08:32;;;;;;;8.45;4.28;;;;;;;17.25;51.59;101750.19;1694400;81;21157;-91
2022/06/04 08:10:59;;;;;;;9.40;4.65;;;;;;;17.27;51.47;101759.09;1731683;81;21106;-90
2022/06/04 08:13:28;;;;;;;11.70;5.03;;;;;;;17.32;51.90;101769.78;1674340;83;21777;-91
2022/06/04 08:16:01;;;;;;;7.22;4.53;;;;;;;17.28;51.87;101754.65;1713700;83;21086;-89
2022/06/04 08:18:29;;;;;;;11.95;5.40;;;;;;;17.35;51.96;101758.30;1716106;83;21348;-91
2022/06/04 08:20:55;;;;;;;11.45;6.00;;;;;;;17.37;51.98;101767.20;1695508;83;21150;-91
2022/06/04 08:23:27;;;;;;;12.50;4.60;;;;;;;17.39;51.99;101770.77;1685939;84;21114;-89
2022/06/04 08:26:02;;;;;;;8.95;4.70;;;;;;;17.38;51.90;101770.30;1680062;85;21798;-90
2022/06/04 08:28:31;;;;;;;9.10;5.25;;;;;;;17.39;51.97;101772.10;1691954;83;21759;-90
2022/06/04 08:31:08;;;;;;;7.28;4.97;;;;;;;17.40;52.18;101773.87;1709700;82;21058;-90
2022/06/04 08:33:36;;;;;;;9.45;5.22;;;;;;;17.41;52.43;101773.89;1678997;83;21546;-91
2022/06/04 08:36:07;;;;;;;9.55;5.53;;;;;;;17.46;52.52;101780.18;1688297;83;21600;-89
2022/06/04 08:38:34;;;;;;;11.57;5.12;;;;;;;17.49;52.74;101771.33;1715868;83;21887;-91
2022/06/04 08:42:00;;;;;;;8.30;4.72;;;;;;;17.58;52.83;101770.56;1707239;83;21540;-89
2022/06/04 08:44:44;;;;;;;12.28;5.40;;;;;;;17.60;52.62;101777.68;1714929;83;21102;-90
2022/06/04 08:47:55;;;;;;;11.78;5.65;;;;;;;17.61;52.72;101769.28;1715822;83;21055;-91
2022/06/04 08:50:24;;;;;;;13.95;6.65;;;;;;;17.65;52.48;101775.98;1715426;83;21070;-89
2022/06/04 08:53:27;;;;;;;14.50;5.65;;;;;;;17.70;52.54;101788.03;1707297;83;22588;-90
2022/06/04 08:59:46;;;;;;;11.57;6.42;;;;;;;17.83;52.44;101786.38;1698044;84;21042;-93
2022/06/04 09:02:18;;;;;;;10.25;5.78;;;;;;;17.80;52.22;101779.27;1688879;84;21711;-88
2022/06/04 09:12:45;;;;;;;12.05;5.37;;;;;;;17.77;51.90;101767.23;1723627;81;21078;-88
2022/06/04 09:15:32;;;;;;;8.10;4.50;;;;;;;17.94;52.08;101786.10;1727103;81;21069;-91
2022/06/04 09:18:01;;;;;;;8.45;5.65;;;;;;;18.00;51.85;101782.20;1702806;83;21207;-90
2022/06/04 09:20:44;;;;;;;11.57;5.75;;;;;;;17.94;51.92;101787.88;1703170;83;21051;-89
2022/06/04 09:23:30;;;;;;;12.28;5.65;;;;;;;17.93;52.03;101784.78;1715522;83;21781;-91
2022/06/04 09:26:19;;;;;;;10.55;5.87;;;;;;;17.94;51.82;101783.44;1697245;84;21047;-90
2022/06/04 09:29:25;;;;;;;9.48;5.08;;;;;;;17.96;51.78;101784.38;1720446;80;21077;-88
2022/06/04 09:32:12;;;;;;;6.37;4.37;;;;;;;17.94;51.65;101788.77;1727326;81;21117;-90
2022/06/04 09:34:52;;;;;;;8.95;4.97;;;;;;;17.91;51.57;101780.77;1726976;82;21086;-94
2022/06/04 09:37:34;;;;;;;7.25;4.50;;;;;;;17.87;51.42;101783.83;1718693;82;21701;-90
2022/06/04 09:40:06;;;;;;;9.95;5.00;;;;;;;17.86;51.37;101795.34;1692130;83;21321;-90
2022/06/04 09:42:41;;;;;;;15.13;4.70;;;;;;;17.82;51.47;101789.94;1708528;82;21096;-89
2022/06/04 09:45:20;;;;;;;7.60;4.42;;;;;;;17.68;51.29;101793.34;1720252;82;21154;-87
2022/06/04 09:47:52;;;;;;;11.43;5.25;;;;;;;17.66;51.57;101794.17;1702703;83;21642;-89
2022/06/04 09:50:34;;;;;;;8.58;4.40;;;;;;;17.67;51.53;101791.53;1719347;83;21786;-90
2022/06/04 09:53:23;;;;;;;8.63;4.53;;;;;;;17.65;51.40;101780.42;1688896;83;21058;-89
2022/06/04 09:55:58;;;;;;;9.15;4.60;;;;;;;17.62;51.38;101789.24;1727432;83;21034;-92
2022/06/04 09:58:34;;;;;;;11.18;4.72;;;;;;;17.62;51.50;101791.91;1707349;81;21129;-90
2022/06/04 10:01:08;;;;;;;5.50;4.17;;;;;;;17.67;51.48;101799.52;1677843;84;21098;-87
2022/06/04 10:03:39;;;;;;;;;;;;;;;17.76;51.27;101796.53;1670819;84;21765;-91
2022/06/04 10:06:19;;;;;;;10.85;3.58;;;;;;;17.80;51.10;101798.35;1699096;83;20199;-93
2022/06/04 10:12:21;;;;;;;7.12;3.90;;;;;;;17.75;50.63;101795.62;1692504;81;21049;-91
2022/06/04 10:14:59;;;;;;;8.10;4.10;;;;;;;17.78;50.53;101792.12;1698942;83;21069;-88
2022/06/04 10:17:38;;;;;;;6.00;4.08;;;;;;;17.81;50.76;101793.47;1712188;82;21916;-91
2022/06/04 10:20:19;;;;;;;12.82;4.67;;;;;;;17.82;51.09;101800.59;1719911;82;21145;-91
2022/06/04 10:22:49;;;;;;;9.73;4.45;;;;;;;17.92;51.39;101810.50;1690004;83;21055;-90
2022/06/04 10:25:41;;;;;;;12.28;4.62;;;;;;;17.95;51.70;101803.89;1718027;81;21463;-91
2022/06/04 10:28:14;;;;;;;9.68;4.78;;;;;;;18.05;52.05;101810.20;1679372;82;21120;-90
2022/06/04 10:30:55;;;;;;;12.18;5.22;;;;;;;18.12;52.16;101799.19;1689312;83;21765;-91
2022/06/04 10:33:45;;;;;;;11.78;5.47;;;;;;;18.15;52.14;101797.45;1701594;81;21077;-91
2022/06/04 10:36:42;;;;;;;11.18;6.00;;;;;;;18.26;52.25;101801.54;1667913;83;21547;-91
2022/06/04 10:39:55;;;;;;;12.60;6.10;;;;;;;18.28;52.08;101804.22;1704802;83;21046;-89
2022/06/04 10:42:46;;;;;;;12.98;6.08;;;;;;;18.34;52.35;101805.61;1702453;82;21830;-90
2022/06/04 10:45:17;;;;;;;9.48;6.60;;;;;;;18.34;52.65;101798.95;1691060;83;22066;-88
2022/06/04 10:48:27;;;;;;;8.45;6.35;;;;;;;18.29;52.57;101808.69;1720837;82;21047;-88
2022/06/04 10:54:18;;;;;;;9.30;6.53;;;;;;;18.07;53.26;101811.11;1666590;83;21803;-92
2022/06/04 10:57:27;;;;;;;12.98;7.72;;;;;;;17.94;52.93;101809.19;1714300;80;21098;-88
2022/06/04 11:00:18;;;;;;;12.18;7.28;;;;;;;17.72;53.46;101811.58;1703074;83;21777;-91
2022/06/04 11:03:01;;;;;;;11.03;6.58;;;;;;;17.68;53.71;101811.98;1658728;86;21755;-91
2022/06/04 11:05:53;;;;;;;18.45;7.00;;;;;;;17.37;53.92;101812.44;1719822;83;21073;-88
2022/06/04 11:08:52;;;;;;;12.53;7.12;;;;;;;17.20;54.31;101810.42;1719733;83;21274;-88
2022/06/04 11:11:51;;;;;;;12.35;7.90;;;;;;;17.18;54.86;101811.28;1737046;81;21046;-90
2022/06/04 11:14:41;;;;;;;13.68;7.62;;;;;;;17.06;54.98;101822.61;1702368;81;21731;-91
2022/06/04 11:17:33;;;;;;;7.65;6.70;;;;;;;16.98;55.29;101818.95;1707095;83;21066;-88
2022/06/04 11:20:27;;;;;;;11.97;7.87;;;;;;;16.92;55.59;101808.22;1721157;83;21587;-89
2022/06/04 11:23:42;;;;;;;9.98;6.42;;;;;;;16.87;55.75;101814.38;1677327;84;21607;-89
2022/06/04 11:26:00;;;;;;;13.48;7.08;;;;;;;16.76;56.04;101817.26;1678366;84;21716;-91
2022/06/04 11:28:42;;;;;;;16.75;7.35;;;;;;;16.72;56.31;101811.40;1663494;84;21974;-90
2022/06/04 11:31:15;;;;;;;9.55;7.83;;;;;;;16.72;56.62;101798.11;1700268;84;21790;-87
2022/06/04 11:34:12;;;;;;;14.65;7.87;;;;;;;16.77;56.75;101811.05;1712805;82;21549;-90
2022/06/04 11:37:05;;;;;;;11.30;7.62;;;;;;;16.84;56.73;101809.44;1705723;81;21603;-87
2022/06/04 11:40:02;;;;;;;16.37;8.90;;;;;;;16.89;56.60;101813.95;1711558;83;21043;-94
2022/06/04 11:42:57;;;;;;;15.43;7.85;;;;;;;16.89;56.81;101809.97;1723648;81;21643;-88
2022/06/04 11:46:07;;;;;;;11.93;6.97;;;;;;;17.15;57.19;101810.78;1710338;83;21090;-87
2022/06/04 11:48:54;;;;;;;8.90;7.35;;;;;;;17.38;56.69;101807.14;1720687;81;21082;-90
2022/06/04 11:51:56;;;;;;;8.88;6.08;;;;;;;17.44;56.36;101803.67;1691165;83;21047;-87
2022/06/04 11:55:12;;;;;;;9.98;7.37;;;;;;;17.44;56.18;101812.98;1693892;83;21083;-87
2022/06/04 11:58:00;;;;;;;9.23;7.25;;;;;;;17.44;56.28;101812.98;1703353;81;21841;-91
2022/06/04 12:00:40;;;;;;;9.65;7.45;;;;;;;17.38;56.22;101809.80;1669290;83;21795;-91
2022/06/04 12:03:18;;;;;;;10.98;7.40;;;;;;;17.37;56.14;101801.80;1693087;82;21041;-91
2022/06/04 12:06:15;;;;;;;15.58;8.40;;;;;;;17.40;56.29;101806.72;1695656;82;21078;-89
2022/06/04 12:08:49;;;;;;;10.98;7.60;;;;;;;17.46;56.30;101803.25;1694241;82;21588;-92
2022/06/04 12:11:19;;;;;;;;;;;;;;;17.44;55.98;101798.34;1706671;82;22693;-87
2022/06/04 12:14:06;;;;;;;9.83;7.28;;;;;;;17.40;55.89;101807.14;1695229;83;20896;-91
2022/06/04 12:16:44;;;;;;;9.85;7.30;;;;;;;17.37;56.01;101808.00;1645305;83;21078;-90
2022/06/04 12:25:17;;;;;;;15.80;12.15;;;;;;;17.33;56.08;101816.82;1704934;82;22744;-91
2022/06/04 12:27:58;;;;;;;10.98;8.83;;;;;;;17.21;56.30;101817.55;1712387;82;21106;-90
2022/06/04 12:30:39;;;;;;;17.48;8.85;;;;;;;17.09;56.52;101817.35;1699335;83;21616;-91
2022/06/04 12:33:20;;;;;;;10.43;7.42;;;;;;;17.02;56.92;101820.34;1714875;82;21090;-87
2022/06/04 12:36:08;;;;;;;14.23;8.60;;;;;;;17.04;57.14;101815.05;1709485;83;21031;-89
2022/06/04 12:39:40;;;;;;;17.00;9.65;;;;;;;17.01;57.02;101818.56;1695845;82;21735;-92
2022/06/04 12:42:27;;;;;;;10.53;7.80;;;;;;;16.87;56.91;101835.64;1710734;83;21043;-92
2022/06/04 12:45:36;;;;;;;11.18;8.33;;;;;;;16.67;56.84;101822.42;1691770;83;21064;-91
2022/06/04 12:53:06;;;;;;;10.50;7.40;;;;;;;16.57;57.17;101834.63;1711855;83;21047;-91
2022/06/04 12:55:34;;;;;;;10.38;7.85;;;;;;;16.59;57.39;101830.27;1626275;86;21794;-93
2022/06/04 12:58:25;;;;;;;9.88;7.12;;;;;;;16.59;57.40;101822.70;1627749;85;21094;-91
2022/06/04 13:01:03;;;;;;;13.53;8.73;;;;;;;16.58;57.36;101824.91;1616636;87;22167;-91
2022/06/04 13:04:17;;;;;;;15.13;10.13;;;;;;;16.62;57.31;101820.98;1602068;89;21061;-89
2022/06/04 13:07:03;;;;;;;10.75;7.90;;;;;;;16.66;57.20;101817.95;1606005;88;21153;-91
2022/06/04 13:10:07;;;;;;;10.05;6.85;;;;;;;16.76;57.19;101808.36;1625854;86;21783;-91
2022/06/04 13:12:45;;;;;;;16.27;6.15;;;;;;;16.85;57.36;101804.56;1612015;87;21054;-88
2022/06/04 13:15:36;;;;;;;10.75;7.03;;;;;;;16.85;57.39;101780.62;1610390;89;21074;-94
2022/06/04 13:18:46;;;;;;;9.08;6.45;;;;;;;17.12;57.09;101812.09;1617629;87;21002;-94
2022/06/04 13:25:17;;;;;;;8.40;7.05;;;;;;;17.28;56.80;101807.87;1631484;86;21171;-91
2022/06/04 13:35:05;;;;;;;11.75;7.00;;;;;;;17.11;56.24;101808.95;1673028;85;21072;-90